Time;durP1;ratioP1;P1;durP2;ratioP2;P2;SDS_P1;SDS_P2;PMS_P1;PMS_P2;Temp;Humidity;BMP_temperature;BMP_pressure;BME280_temperature;BME280_humidity;BME280_pressure;Samples;Min_cycle;Max_cycle;Signal;HPM_P1;HPM_P2
2022/07/07 00:03:55;;;;;;;6.37;2.80;;;18.30;99.90;;;;;;7361153;32;20123;-62
2022/07/07 00:07:57;;;;;;;4.65;2.45;;;18.40;99.90;;;;;;7359300;32;20179;-63
2022/07/07 00:11:59;;;;;;;9.50;2.65;;;18.40;99.90;;;;;;7360125;32;20189;-60
2022/07/07 00:16:01;;;;;;;4.80;2.47;;;18.30;99.90;;;;;;7360234;32;20103;-63
2022/07/07 00:20:04;;;;;;;9.02;2.10;;;18.30;99.90;;;;;;7359797;32;20103;-61
2022/07/07 00:24:06;;;;;;;9.98;3.00;;;18.20;99.90;;;;;;7359922;32;20104;-61
2022/07/07 00:28:08;;;;;;;8.23;3.17;;;18.20;99.90;;;;;;7356556;32;20679;-62
2022/07/07 00:32:10;;;;;;;11.10;3.15;;;18.20;99.90;;;;;;7359710;32;20707;-62
2022/07/07 00:36:12;;;;;;;6.12;4.00;;;18.10;99.90;;;;;;7359524;32;20438;-61
2022/07/07 00:40:28;;;;;;;12.77;3.62;;;18.20;99.90;;;;;;7357766;32;20223;-61
2022/07/07 00:44:30;;;;;;;5.90;3.28;;;18.20;99.90;;;;;;7359120;32;20108;-62
2022/07/07 00:48:37;;;;;;;8.60;3.37;;;18.20;99.90;;;;;;7358354;32;20095;-61
2022/07/07 00:52:38;;;;;;;5.60;2.90;;;18.20;99.90;;;;;;7358017;32;20104;-61
2022/07/07 00:56:40;;;;;;;7.78;2.78;;;18.10;99.90;;;;;;7340889;32;20563;-61
2022/07/07 01:00:42;;;;;;;3.78;2.60;;;18.10;99.90;;;;;;7357922;32;20099;-61
2022/07/07 01:04:44;;;;;;;6.82;2.53;;;18.20;99.90;;;;;;7359457;32;20190;-61
2022/07/07 01:08:46;;;;;;;5.85;2.58;;;18.00;99.90;;;;;;7357266;32;20163;-61
2022/07/07 01:12:48;;;;;;;5.32;2.40;;;18.00;99.90;;;;;;7358894;32;20152;-63
2022/07/07 01:16:51;;;;;;;7.68;2.75;;;18.00;99.90;;;;;;7358437;32;20170;-61
2022/07/07 01:20:54;;;;;;;6.22;2.37;;;18.00;99.90;;;;;;7357882;32;20152;-62
2022/07/07 01:24:55;;;;;;;4.32;2.25;;;18.00;99.90;;;;;;7358269;32;20126;-61
2022/07/07 01:28:57;;;;;;;7.60;2.58;;;18.00;99.90;;;;;;7357459;32;20138;-62
2022/07/07 01:32:59;;;;;;;7.70;2.50;;;18.00;99.90;;;;;;7356864;32;20115;-62
2022/07/07 01:37:01;;;;;;;5.60;2.67;;;18.10;99.90;;;;;;7356260;32;20135;-61
2022/07/07 01:41:03;;;;;;;6.30;3.10;;;18.10;99.90;;;;;;7356075;32;20118;-61
2022/07/07 01:45:05;;;;;;;5.25;3.47;;;18.00;99.90;;;;;;7356407;32;20247;-61
2022/07/07 01:49:07;;;;;;;7.30;2.92;;;17.90;99.90;;;;;;7357495;32;20160;-62
2022/07/07 01:53:09;;;;;;;6.00;3.35;;;17.80;99.90;;;;;;7357580;32;20103;-61
2022/07/07 01:57:11;;;;;;;6.65;3.12;;;17.80;99.90;;;;;;7357385;32;20102;-61
2022/07/07 02:01:13;;;;;;;6.05;3.58;;;17.70;99.90;;;;;;7356452;32;20122;-61
2022/07/07 02:05:15;;;;;;;5.97;3.20;;;17.60;99.90;;;;;;7357233;32;20231;-62
2022/07/07 02:09:17;;;;;;;5.85;3.83;;;17.60;99.90;;;;;;7356870;32;20123;-61
2022/07/07 02:13:18;;;;;;;6.12;3.65;;;17.50;99.90;;;;;;7357122;32;20107;-62
2022/07/07 02:17:20;;;;;;;6.40;3.30;;;17.50;99.90;;;;;;7332240;32;20164;-60
2022/07/07 02:21:23;;;;;;;6.78;3.45;;;17.60;99.90;;;;;;7331526;32;20112;-62
2022/07/07 02:25:24;;;;;;;7.95;2.95;;;17.60;99.90;;;;;;7345299;32;20240;-63
2022/07/07 02:29:26;;;;;;;3.50;2.65;;;17.60;99.90;;;;;;7356612;32;20532;-61
2022/07/07 02:33:28;;;;;;;5.95;2.70;;;17.70;99.90;;;;;;7356975;32;20087;-61
2022/07/07 02:37:30;;;;;;;3.55;2.22;;;17.70;99.90;;;;;;7356876;32;20492;-60
2022/07/07 02:41:32;;;;;;;5.65;2.45;;;17.70;99.90;;;;;;7356691;32;20143;-60
2022/07/07 02:45:34;;;;;;;6.55;2.45;;;17.70;99.90;;;;;;7356263;32;20129;-61
2022/07/07 02:49:35;;;;;;;3.10;2.37;;;17.70;99.90;;;;;;7348109;32;20589;-61
2022/07/07 02:53:38;;;;;;;5.25;2.40;;;17.80;99.90;;;;;;7356908;32;20103;-61
2022/07/07 02:57:40;;;;;;;6.30;2.10;;;17.80;99.90;;;;;;7355810;32;20251;-61
2022/07/07 03:01:45;;;;;;;4.15;2.20;;;17.80;99.90;;;;;;7356775;32;20127;-61
2022/07/07 03:05:47;;;;;;;3.95;2.08;;;17.70;99.90;;;;;;7356642;32;20155;-61
2022/07/07 03:09:49;;;;;;;6.93;2.15;;;17.70;99.90;;;;;;7361136;32;20663;-61
2022/07/07 03:13:51;;;;;;;7.07;2.35;;;17.70;99.90;;;;;;7361696;32;20168;-60
2022/07/07 03:17:53;;;;;;;12.98;2.08;;;17.80;99.90;;;;;;7360560;32;20149;-61
2022/07/07 03:21:54;;;;;;;3.90;2.60;;;17.70;99.90;;;;;;7357467;32;20194;-61
2022/07/07 03:25:56;;;;;;;5.18;2.62;;;17.70;99.90;;;;;;7357649;32;20111;-61
2022/07/07 03:29:58;;;;;;;3.90;2.17;;;17.70;99.90;;;;;;7359374;32;20115;-61
2022/07/07 03:34:00;;;;;;;4.75;2.20;;;17.80;99.90;;;;;;7361188;32;20459;-61
2022/07/07 03:38:02;;;;;;;3.87;1.95;;;17.70;99.90;;;;;;7360299;32;20721;-61
2022/07/07 03:42:03;;;;;;;6.03;2.50;;;17.60;99.90;;;;;;7359479;32;20156;-61
2022/07/07 03:46:05;;;;;;;4.68;2.85;;;17.70;99.90;;;;;;7360220;32;20127;-61
2022/07/07 03:50:08;;;;;;;6.95;2.45;;;17.60;99.90;;;;;;7360130;32;20133;-59
2022/07/07 03:54:10;;;;;;;3.95;2.55;;;17.60;99.90;;;;;;7360192;32;20172;-60
2022/07/07 03:58:11;;;;;;;5.35;2.60;;;17.60;99.90;;;;;;7353690;32;20198;-60
2022/07/07 04:02:13;;;;;;;4.12;2.45;;;17.60;99.90;;;;;;7360157;32;20131;-60
2022/07/07 04:06:15;;;;;;;7.25;3.50;;;17.60;99.90;;;;;;7360036;32;20257;-60
2022/07/07 04:10:17;;;;;;;6.70;2.92;;;17.60;99.90;;;;;;7360394;32;20216;-60
2022/07/07 04:14:18;;;;;;;5.80;2.72;;;17.60;99.90;;;;;;7359382;32;20339;-61
2022/07/07 04:18:20;;;;;;;4.87;2.75;;;17.70;99.90;;;;;;7359915;32;20175;-60
2022/07/07 04:22:22;;;;;;;4.35;2.62;;;17.70;99.90;;;;;;7360928;32;20121;-60
2022/07/07 04:26:24;;;;;;;5.50;3.10;;;17.60;99.90;;;;;;7360781;32;20478;-61
2022/07/07 04:30:26;;;;;;;5.28;2.70;;;17.70;99.90;;;;;;7359985;32;20120;-61
2022/07/07 04:34:28;;;;;;;5.62;3.10;;;17.70;99.90;;;;;;7360093;32;20099;-61
2022/07/07 04:38:30;;;;;;;4.28;2.83;;;17.60;99.90;;;;;;7359439;32;20103;-62
2022/07/07 04:42:32;;;;;;;5.75;3.28;;;17.60;99.90;;;;;;7360427;32;20734;-60
2022/07/07 04:46:34;;;;;;;6.40;3.22;;;17.70;99.90;;;;;;7357655;32;20535;-63
2022/07/07 04:50:35;;;;;;;6.90;3.35;;;17.70;99.90;;;;;;7358394;32;20277;-64
2022/07/07 04:54:37;;;;;;;6.43;3.12;;;17.60;99.90;;;;;;7358871;32;20523;-64
2022/07/07 04:58:39;;;;;;;6.47;3.20;;;17.60;99.90;;;;;;7358343;32;20169;-65
2022/07/07 05:02:41;;;;;;;6.22;3.62;;;17.50;99.90;;;;;;7359518;32;20568;-64
2022/07/07 05:06:43;;;;;;;7.28;3.53;;;17.40;99.90;;;;;;7357342;32;20498;-64
2022/07/07 05:10:45;;;;;;;6.85;4.70;;;17.20;99.90;;;;;;7358423;32;20334;-64
2022/07/07 05:14:48;;;;;;;8.40;4.50;;;17.00;99.90;;;;;;7358866;32;20169;-64
2022/07/07 05:18:49;;;;;;;8.07;4.43;;;16.90;99.90;;;;;;7357905;32;20161;-63
2022/07/07 05:22:51;;;;;;;8.07;4.60;;;16.70;99.90;;;;;;7358505;32;20103;-63
2022/07/07 05:26:53;;;;;;;6.05;3.87;;;16.40;99.90;;;;;;7358448;32;20558;-64
2022/07/07 05:30:55;;;;;;;7.95;3.28;;;16.20;99.90;;;;;;7356790;32;20115;-63
2022/07/07 05:34:56;;;;;;;6.35;3.25;;;16.10;99.90;;;;;;7358724;32;20138;-64
2022/07/07 05:38:58;;;;;;;4.60;2.45;;;16.00;99.90;;;;;;7358209;32;20127;-64
2022/07/07 05:43:00;;;;;;;3.95;2.35;;;15.90;99.90;;;;;;7358389;32;20118;-65
2022/07/07 05:47:02;;;;;;;3.37;2.62;;;15.90;99.90;;;;;;7358023;32;20167;-65
2022/07/07 05:51:04;;;;;;;4.62;2.70;;;16.00;99.90;;;;;;7357330;32;20134;-65
2022/07/07 05:55:09;;;;;;;3.42;2.80;;;15.90;99.90;;;;;;7357842;32;20157;-65
2022/07/07 05:59:11;;;;;;;6.07;4.05;;;16.00;99.90;;;;;;7357276;32;20127;-64
2022/07/07 06:03:13;;;;;;;5.22;3.33;;;16.00;99.90;;;;;;7358500;32;20127;-65
2022/07/07 06:07:15;;;;;;;6.43;3.20;;;16.00;99.90;;;;;;7358298;32;20174;-64
2022/07/07 06:11:17;;;;;;;7.10;3.87;;;16.10;99.90;;;;;;7357908;32;20136;-65
2022/07/07 06:15:26;;;;;;;6.62;3.80;;;16.10;99.90;;;;;;7357663;32;20194;-64
2022/07/07 06:19:28;;;;;;;8.32;4.10;;;16.10;99.90;;;;;;7356772;32;20527;-65
2022/07/07 06:23:29;;;;;;;5.20;3.72;;;16.20;99.90;;;;;;7357847;32;20182;-65
2022/07/07 06:27:39;;;;;;;5.62;4.12;;;16.20;99.90;;;;;;7355023;32;20100;-65
2022/07/07 06:31:41;;;;;;;6.87;3.70;;;16.30;99.90;;;;;;7356582;32;20168;-65
2022/07/07 06:35:43;;;;;;;4.75;2.95;;;16.30;99.90;;;;;;7357781;32;20103;-65
2022/07/07 06:39:44;;;;;;;4.57;3.33;;;16.20;99.90;;;;;;7357292;32;20115;-65
2022/07/07 06:43:46;;;;;;;5.43;3.37;;;16.30;99.90;;;;;;7357360;32;20149;-65
2022/07/07 06:47:48;;;;;;;3.65;3.00;;;16.20;99.90;;;;;;7356222;32;20168;-65
2022/07/07 06:51:58;;;;;;;5.15;3.85;;;16.30;99.90;;;;;;7357398;32;20522;-65
2022/07/07 06:55:59;;;;;;;6.40;3.53;;;16.30;99.90;;;;;;7356970;32;20563;-64
2022/07/07 07:00:01;;;;;;;4.55;2.95;;;16.50;99.90;;;;;;7356569;32;20179;-64
2022/07/07 07:04:04;;;;;;;4.10;3.20;;;16.50;99.90;;;;;;7357033;32;20464;-64
2022/07/07 07:08:07;;;;;;;4.72;3.37;;;16.50;99.90;;;;;;7355919;32;20103;-64
2022/07/07 07:12:09;;;;;;;8.25;3.83;;;16.60;99.90;;;;;;7357135;32;20228;-65
2022/07/07 07:16:10;;;;;;;6.90;4.22;;;16.70;99.90;;;;;;7356293;32;20119;-64
2022/07/07 07:20:14;;;;;;;8.95;4.60;;;16.60;99.90;;;;;;7355613;32;20134;-64
2022/07/07 07:24:16;;;;;;;7.22;4.15;;;16.60;99.90;;;;;;7355837;32;20193;-65
2022/07/07 07:28:19;;;;;;;7.82;2.00;;;16.60;99.90;;;;;;7354343;32;20147;-65
2022/07/07 07:32:21;;;;;;;2.80;1.20;;;17.00;99.90;;;;;;7355763;32;20104;-65
2022/07/07 07:36:23;;;;;;;3.90;1.05;;;17.30;99.90;;;;;;7355532;32;20194;-65
2022/07/07 07:40:25;;;;;;;3.58;0.90;;;17.30;99.90;;;;;;7355135;32;20111;-65
2022/07/07 07:48:47;;;;;;;3.60;0.62;;;17.40;99.90;;;;;;7329389;32;20845;-67
2022/07/07 07:52:50;;;;;;;4.60;0.57;;;17.50;99.90;;;;;;7333266;32;20484;-65
2022/07/07 07:56:52;;;;;;;5.95;0.98;;;17.50;99.90;;;;;;7359849;32;20171;-64
2022/07/07 08:00:53;;;;;;;4.32;1.02;;;17.90;99.90;;;;;;7359715;32;20107;-64
2022/07/07 08:04:55;;;;;;;3.53;0.70;;;17.90;99.90;;;;;;7359636;32;20330;-65
2022/07/07 08:08:57;;;;;;;5.40;0.90;;;17.50;99.90;;;;;;7360030;32;20148;-65
2022/07/07 08:12:59;;;;;;;3.03;0.65;;;17.30;99.90;;;;;;7359982;32;20178;-65
2022/07/07 08:17:01;;;;;;;4.87;0.60;;;17.30;99.90;;;;;;7357558;32;20107;-65
2022/07/07 08:21:03;;;;;;;3.92;0.85;;;17.30;99.90;;;;;;7358346;32;20116;-65
2022/07/07 08:25:06;;;;;;;3.35;0.55;;;17.30;99.90;;;;;;7358126;32;20836;-65
2022/07/07 08:29:08;;;;;;;4.37;0.80;;;17.30;99.90;;;;;;7358799;32;20112;-65
2022/07/07 08:33:10;;;;;;;7.60;1.23;;;17.30;99.90;;;;;;7359340;32;20236;-65
2022/07/07 08:37:12;;;;;;;5.03;1.30;;;17.30;99.90;;;;;;7358844;32;20539;-65
2022/07/07 08:41:15;;;;;;;6.12;1.17;;;17.30;99.90;;;;;;7358530;32;20370;-65
2022/07/07 08:45:17;;;;;;;7.15;1.10;;;17.50;99.90;;;;;;7359029;32;20095;-66
2022/07/07 08:49:19;;;;;;;4.43;1.08;;;17.90;99.90;;;;;;7358204;32;20130;-66
2022/07/07 08:53:33;;;;;;;3.60;0.75;;;18.10;99.90;;;;;;7358614;32;20107;-66
2022/07/07 08:57:37;;;;;;;2.53;0.70;;;18.40;99.90;;;;;;7358107;32;20602;-65
2022/07/07 09:01:39;;;;;;;5.25;0.90;;;18.60;99.90;;;;;;7358524;32;20122;-66
2022/07/07 09:05:41;;;;;;;5.55;0.80;;;18.40;99.90;;;;;;7356924;32;20095;-65
2022/07/07 09:09:45;;;;;;;3.87;0.60;;;18.30;99.90;;;;;;7357404;32;20727;-65
2022/07/07 09:13:48;;;;;;;7.62;4.05;;;18.40;99.90;;;;;;7357545;32;20165;-66
2022/07/07 09:17:50;;;;;;;2.75;0.70;;;18.30;99.90;;;;;;7357964;32;20514;-65
2022/07/07 09:21:52;;;;;;;5.90;0.88;;;18.20;99.90;;;;;;7357923;32;20103;-65
2022/07/07 09:25:54;;;;;;;3.37;1.10;;;18.00;99.90;;;;;;7358068;32;20487;-65
2022/07/07 09:29:56;;;;;;;3.37;0.90;;;17.90;99.90;;;;;;7357471;32;20251;-65
2022/07/07 09:34:13;;;;;;;2.83;0.93;;;17.90;99.90;;;;;;7357642;32;20106;-65
2022/07/07 09:38:25;;;;;;;3.95;0.85;;;17.70;99.90;;;;;;7356931;32;20332;-65
2022/07/07 09:42:32;;;;;;;7.80;1.40;;;17.60;99.90;;;;;;7357571;32;20218;-65
2022/07/07 09:46:34;;;;;;;;;;;17.50;99.90;;;;;;7358574;32;20237;-65
2022/07/07 09:50:36;;;;;;;6.60;1.10;;;17.70;99.90;;;;;;7357077;32;20204;-65
2022/07/07 09:54:48;;;;;;;5.28;1.05;;;17.50;99.90;;;;;;7357370;32;20115;-64
2022/07/07 09:58:50;;;;;;;6.00;1.15;;;17.20;99.90;;;;;;7356636;32;20231;-65
2022/07/07 10:02:54;;;;;;;2.85;0.80;;;16.80;99.90;;;;;;7357463;32;20107;-65
2022/07/07 10:06:59;;;;;;;3.10;0.98;;;16.80;99.90;;;;;;7357877;32;20480;-66
2022/07/07 10:11:04;;;;;;;5.57;0.90;;;16.60;99.90;;;;;;7356717;32;20178;-65
2022/07/07 10:15:12;;;;;;;3.55;0.62;;;16.90;99.90;;;;;;7356586;32;20218;-65
2022/07/07 10:19:18;;;;;;;5.35;0.80;;;17.20;99.90;;;;;;7356100;32;20199;-65
2022/07/07 10:23:19;;;;;;;2.53;0.70;;;17.60;99.90;;;;;;7357286;32;20519;-65
2022/07/07 10:27:23;;;;;;;6.15;0.88;;;17.70;99.90;;;;;;7357500;32;20115;-65
2022/07/07 10:31:28;;;;;;;5.25;0.70;;;17.60;99.90;;;;;;7356115;32;20110;-65
2022/07/07 10:35:53;;;;;;;2.65;1.08;;;17.70;99.90;;;;;;7357222;32;20119;-65
2022/07/07 10:39:56;;;;;;;2.37;0.90;;;18.10;99.90;;;;;;7355576;32;20142;-65
2022/07/07 10:44:12;;;;;;;2.65;0.70;;;18.50;99.90;;;;;;7348142;32;20776;-66
2022/07/07 10:48:42;;;;;;;2.53;0.57;;;18.20;99.90;;;;;;7329422;32;20124;-65
2022/07/07 10:52:44;;;;;;;2.67;0.80;;;18.00;99.90;;;;;;7331121;32;20760;-66
2022/07/07 10:57:10;;;;;;;3.58;0.60;;;17.70;99.90;;;;;;7341633;32;20209;-65
2022/07/07 11:01:13;;;;;;;2.85;0.52;;;17.60;99.90;;;;;;7356123;32;20119;-64
2022/07/07 11:05:14;;;;;;;4.00;0.80;;;17.40;99.90;;;;;;7356998;32;20206;-64
2022/07/07 11:09:16;;;;;;;6.10;1.20;;;17.50;99.90;;;;;;7355957;32;20626;-65
2022/07/07 11:13:21;;;;;;;5.03;1.20;;;17.40;99.90;;;;;;7355632;32;20137;-65
2022/07/07 11:17:23;;;;;;;3.65;0.80;;;17.30;99.90;;;;;;7356691;32;20187;-65
2022/07/07 11:21:41;;;;;;;4.00;0.65;;;17.30;99.90;;;;;;7356637;32;20471;-64
2022/07/07 11:25:44;;;;;;;1.95;0.60;;;17.20;99.90;;;;;;7355997;32;20149;-66
2022/07/07 11:29:46;;;;;;;4.40;0.90;;;17.20;99.90;;;;;;7360592;32;20217;-64
2022/07/07 11:33:52;;;;;;;2.15;0.70;;;17.20;99.90;;;;;;7361821;32;20582;-66
2022/07/07 11:37:54;;;;;;;4.60;0.70;;;17.00;99.90;;;;;;7361874;32;20133;-66
2022/07/07 11:42:05;;;;;;;1.62;0.50;;;16.90;99.90;;;;;;7361243;32;20328;-66
2022/07/07 11:46:07;;;;;;;3.20;0.77;;;16.80;99.90;;;;;;7361468;32;20210;-66
2022/07/07 11:50:09;;;;;;;2.08;0.50;;;17.10;99.90;;;;;;7361268;32;20485;-64
2022/07/07 11:54:12;;;;;;;1.52;0.40;;;17.30;99.90;;;;;;7362246;32;20164;-64
2022/07/07 11:58:14;;;;;;;3.03;0.47;;;17.60;99.90;;;;;;7360543;32;20127;-64
2022/07/07 12:02:19;;;;;;;1.83;0.68;;;18.00;99.90;;;;;;7361365;32;20111;-63
2022/07/07 12:06:26;;;;;;;1.85;0.52;;;18.40;99.90;;;;;;7361846;32;20114;-64
2022/07/07 12:10:28;;;;;;;2.12;0.80;;;18.30;99.90;;;;;;7360639;32;20489;-65
2022/07/07 12:14:32;;;;;;;5.07;0.85;;;18.00;99.90;;;;;;7360743;32;20567;-65
2022/07/07 12:18:41;;;;;;;3.12;0.47;;;17.70;99.90;;;;;;7360227;32;20115;-65
2022/07/07 12:22:49;;;;;;;0.85;0.40;;;17.60;99.90;;;;;;7361495;32;20155;-65
2022/07/07 12:26:51;;;;;;;0.80;0.40;;;17.50;99.90;;;;;;7360937;32;20619;-63
2022/07/07 12:30:56;;;;;;;2.53;1.37;;;17.40;99.90;;;;;;7359895;32;20526;-64
2022/07/07 12:34:58;;;;;;;1.48;0.30;;;17.60;99.90;;;;;;7360403;32;20755;-64
2022/07/07 12:39:03;;;;;;;2.40;0.40;;;17.90;99.90;;;;;;7359366;32;20647;-64
2022/07/07 12:43:06;;;;;;;1.85;0.40;;;18.30;99.90;;;;;;7361060;32;20143;-65
2022/07/07 12:47:07;;;;;;;2.60;0.60;;;18.50;99.90;;;;;;7360318;32;20115;-65
2022/07/07 12:51:09;;;;;;;1.27;0.60;;;18.60;99.90;;;;;;7359010;32;20539;-64
2022/07/07 12:55:13;;;;;;;1.25;0.40;;;18.40;99.90;;;;;;7360376;32;20539;-65
2022/07/07 12:59:22;;;;;;;2.75;0.50;;;18.20;99.90;;;;;;7360018;32;20501;-64
2022/07/07 13:03:24;;;;;;;1.65;0.50;;;17.70;99.90;;;;;;7359581;32;20103;-64
2022/07/07 13:07:26;;;;;;;5.18;0.75;;;17.60;99.90;;;;;;7359912;32;20197;-64
2022/07/07 13:11:28;;;;;;;2.55;0.77;;;17.60;99.90;;;;;;7359067;32;20170;-65
2022/07/07 13:15:30;;;;;;;2.37;0.68;;;17.60;99.90;;;;;;7359102;32;20775;-65
2022/07/07 13:19:32;;;;;;;1.90;0.60;;;18.00;99.90;;;;;;7357975;32;20130;-64
2022/07/07 13:23:35;;;;;;;1.08;0.52;;;18.30;99.90;;;;;;7358248;32;20123;-64
2022/07/07 13:27:37;;;;;;;2.78;0.62;;;18.60;99.90;;;;;;7357901;32;20106;-65
2022/07/07 13:31:41;;;;;;;2.80;0.60;;;18.80;99.90;;;;;;7358248;32;20123;-64
2022/07/07 13:35:44;;;;;;;1.95;0.60;;;19.00;99.90;;;;;;7358038;32;20133;-65
2022/07/07 13:39:45;;;;;;;2.30;0.62;;;19.00;99.90;;;;;;7357462;32;20170;-65
2022/07/07 13:43:48;;;;;;;0.82;0.50;;;19.10;99.90;;;;;;7358533;32;20114;-66
2022/07/07 13:47:49;;;;;;;2.47;0.47;;;19.10;99.90;;;;;;7357598;32;20225;-66
2022/07/07 13:51:51;;;;;;;1.50;0.50;;;19.50;99.90;;;;;;7356818;32;20154;-65
2022/07/07 13:56:10;;;;;;;1.80;0.40;;;20.00;99.90;;;;;;7358071;32;20446;-65
2022/07/07 14:00:12;;;;;;;2.33;0.40;;;20.50;99.90;;;;;;7356735;32;20123;-66
2022/07/07 14:04:14;;;;;;;3.00;0.68;;;20.80;99.90;;;;;;7356749;32;20214;-66
2022/07/07 14:08:16;;;;;;;2.12;0.50;;;20.90;99.90;;;;;;7356418;32;20233;-65
2022/07/07 14:12:23;;;;;;;2.03;0.60;;;20.70;99.90;;;;;;7357639;32;20111;-65
2022/07/07 14:16:25;;;;;;;3.85;0.60;;;20.30;99.90;;;;;;7357514;32;20130;-65
2022/07/07 14:20:27;;;;;;;2.78;0.60;;;20.00;99.90;;;;;;7356157;32;20220;-66
2022/07/07 14:24:29;;;;;;;5.25;2.25;;;19.60;99.90;;;;;;7357778;32;20156;-65
2022/07/07 14:28:31;;;;;;;1.55;0.55;;;19.50;99.90;;;;;;7356485;32;20107;-65
2022/07/07 14:32:35;;;;;;;3.08;0.70;;;19.20;99.90;;;;;;7357827;32;20115;-65
2022/07/07 14:36:37;;;;;;;2.92;0.73;;;19.10;99.90;;;;;;7357350;32;20217;-65
2022/07/07 14:40:39;;;;;;;3.40;0.68;;;19.10;99.90;;;;;;7356505;32;20138;-65
2022/07/07 14:44:44;;;;;;;3.33;0.60;;;19.70;99.90;;;;;;7356678;32;20123;-64
2022/07/07 14:48:46;;;;;;;1.70;0.80;;;20.00;99.90;;;;;;7355917;32;20160;-65
2022/07/07 14:52:48;;;;;;;3.60;1.05;;;19.70;99.90;;;;;;7356900;32;20256;-65
2022/07/07 14:56:49;;;;;;;7.20;1.02;;;19.60;99.90;;;;;;7356965;32;20207;-66
2022/07/07 15:00:51;;;;;;;5.15;1.10;;;19.80;99.90;;;;;;7356984;32;20163;-66
2022/07/07 15:04:53;;;;;;;6.70;1.60;;;19.70;99.90;;;;;;7362415;32;20107;-65
2022/07/07 15:08:56;;;;;;;6.05;1.48;;;19.20;99.90;;;;;;7360818;32;20135;-65
2022/07/07 15:12:58;;;;;;;6.72;1.50;;;19.20;99.90;;;;;;7361813;32;20216;-66
2022/07/07 15:16:59;;;;;;;7.93;1.23;;;19.70;99.90;;;;;;7362030;32;20484;-65
2022/07/07 15:21:02;;;;;;;9.23;1.45;;;20.00;99.90;;;;;;7359715;32;20164;-66
2022/07/07 15:25:04;;;;;;;6.40;1.35;;;20.00;99.90;;;;;;7359540;32;20160;-65
2022/07/07 15:29:07;;;;;;;5.75;1.30;;;19.80;99.90;;;;;;7360302;32;20168;-66
2022/07/07 15:33:08;;;;;;;11.30;2.20;;;19.30;99.90;;;;;;7361273;32;20524;-66
2022/07/07 15:37:10;;;;;;;7.35;1.33;;;19.20;99.90;;;;;;7361230;32;20174;-65
2022/07/07 15:41:14;;;;;;;9.27;1.80;;;19.10;99.90;;;;;;7360340;32;20158;-65
2022/07/07 15:45:16;;;;;;;8.30;1.58;;;19.00;99.90;;;;;;7360946;32;20277;-65
2022/07/07 15:49:18;;;;;;;7.87;1.20;;;18.90;99.90;;;;;;7360094;32;20229;-66
2022/07/07 15:53:20;;;;;;;6.05;1.27;;;18.70;99.90;;;;;;7359950;32;20119;-67
2022/07/07 15:57:21;;;;;;;4.85;0.80;;;18.90;99.90;;;;;;7361073;32;20142;-65
2022/07/07 16:01:23;;;;;;;9.48;1.55;;;19.10;99.90;;;;;;7359384;32;20150;-65
2022/07/07 16:05:25;;;;;;;10.82;1.20;;;19.10;99.90;;;;;;7361043;32;20188;-66
2022/07/07 16:09:28;;;;;;;6.53;1.20;;;19.20;99.90;;;;;;7359945;32;20139;-65
2022/07/07 16:13:30;;;;;;;9.07;1.23;;;19.00;99.90;;;;;;7359381;32;20146;-65
2022/07/07 16:17:32;;;;;;;9.48;1.20;;;18.80;99.90;;;;;;7359645;32;20159;-65
2022/07/07 16:21:41;;;;;;;7.07;1.48;;;18.60;99.90;;;;;;7360049;32;20112;-65
2022/07/07 16:25:42;;;;;;;11.23;1.67;;;18.40;99.90;;;;;;7359707;32;20111;-65
2022/07/07 16:29:44;;;;;;;9.52;1.50;;;18.30;99.90;;;;;;7359424;32;20171;-65
2022/07/07 16:33:46;;;;;;;9.07;1.37;;;18.30;99.90;;;;;;7360331;32;20748;-65
2022/07/07 16:37:48;;;;;;;8.82;1.33;;;18.30;99.90;;;;;;7359046;32;20254;-65
2022/07/07 16:41:50;;;;;;;7.50;1.35;;;18.20;99.90;;;;;;7360113;32;20155;-67
2022/07/07 16:45:52;;;;;;;7.43;1.67;;;18.10;99.90;;;;;;7359195;32;20111;-64
2022/07/07 16:49:53;;;;;;;8.38;1.60;;;18.10;99.90;;;;;;7358977;32;20443;-66
2022/07/07 16:53:57;;;;;;;9.27;1.50;;;17.90;99.90;;;;;;7359276;32;20287;-65
2022/07/07 16:58:04;;;;;;;9.95;1.40;;;17.80;99.90;;;;;;7358463;32;20141;-65
2022/07/07 17:02:06;;;;;;;8.23;1.52;;;17.70;99.90;;;;;;7359673;32;20174;-65
2022/07/07 17:06:08;;;;;;;7.85;1.67;;;17.60;99.90;;;;;;7358796;32;20189;-65
2022/07/07 17:10:10;;;;;;;8.27;1.50;;;17.70;99.90;;;;;;7358703;32;20107;-64
2022/07/07 17:14:12;;;;;;;11.18;1.50;;;17.80;99.90;;;;;;7358544;32;20512;-65
2022/07/07 17:18:14;;;;;;;8.35;1.60;;;17.80;99.90;;;;;;7357980;32;20164;-65
2022/07/07 17:22:16;;;;;;;10.10;2.08;;;17.90;99.90;;;;;;7358808;32;20154;-64
2022/07/07 17:26:17;;;;;;;6.95;1.50;;;17.80;99.90;;;;;;7357503;32;20115;-66
2022/07/07 17:30:19;;;;;;;8.52;1.62;;;17.70;99.90;;;;;;7357070;32;20115;-65
2022/07/07 17:34:21;;;;;;;5.43;1.25;;;17.70;99.90;;;;;;7358718;32;20111;-65
2022/07/07 17:38:23;;;;;;;9.15;1.60;;;17.70;99.90;;;;;;7358025;32;20507;-65
2022/07/07 17:46:27;;;;;;;8.52;1.48;;;17.70;99.90;;;;;;7423830;31;20205;-68
2022/07/07 17:50:29;;;;;;;7.47;1.52;;;17.60;99.90;;;;;;7379126;32;20139;-66
2022/07/07 17:54:31;;;;;;;9.40;1.62;;;17.50;99.90;;;;;;7378810;32;20206;-66
2022/07/07 17:58:33;;;;;;;6.03;1.40;;;17.50;99.90;;;;;;7358360;32;20180;-66
2022/07/07 18:02:35;;;;;;;8.15;1.67;;;17.60;99.90;;;;;;7363258;32;20133;-66
2022/07/07 18:06:37;;;;;;;8.98;1.80;;;17.70;99.90;;;;;;7380079;32;20198;-67
2022/07/07 18:10:39;;;;;;;14.00;1.90;;;17.70;99.90;;;;;;7379133;32;20122;-66
2022/07/07 18:14:42;;;;;;;9.98;1.67;;;17.50;99.90;;;;;;7379408;32;20103;-66
2022/07/07 18:18:43;;;;;;;6.82;1.40;;;17.40;99.90;;;;;;7378306;32;20107;-66
2022/07/07 18:22:48;;;;;;;7.60;1.85;;;17.40;99.90;;;;;;7377903;32;20117;-66
2022/07/07 18:26:50;;;;;;;7.85;1.62;;;17.30;99.90;;;;;;7379365;32;20623;-66
2022/07/07 18:30:52;;;;;;;7.70;1.92;;;17.30;99.90;;;;;;7378395;32;20415;-66
2022/07/07 18:34:54;;;;;;;10.00;1.50;;;17.10;99.90;;;;;;7379185;32;20148;-66
2022/07/07 18:38:56;;;;;;;6.53;1.30;;;17.10;99.90;;;;;;7378023;32;20107;-66
2022/07/07 18:42:58;;;;;;;7.95;1.50;;;17.00;99.90;;;;;;7378794;32;20675;-66
2022/07/07 18:47:00;;;;;;;10.30;1.60;;;17.00;99.90;;;;;;7378755;32;20294;-65
2022/07/07 18:55:23;;;;;;;8.65;1.80;;;16.90;99.90;;;;;;7371657;32;20140;-66
2022/07/07 18:59:24;;;;;;;9.00;1.80;;;16.90;99.90;;;;;;7335362;32;20115;-66
2022/07/07 19:03:27;;;;;;;5.53;1.42;;;16.80;99.90;;;;;;7335554;32;20724;-66
2022/07/07 19:07:29;;;;;;;10.35;1.87;;;16.80;99.90;;;;;;7335010;32;20115;-66
2022/07/07 19:11:31;;;;;;;9.82;1.52;;;16.70;99.90;;;;;;7338047;32;20084;-66
2022/07/07 19:15:34;;;;;;;8.93;1.67;;;16.70;99.90;;;;;;7357362;32;20491;-65
2022/07/07 19:19:35;;;;;;;10.90;1.77;;;16.70;99.90;;;;;;7360129;32;20103;-67
2022/07/07 19:23:37;;;;;;;6.62;1.45;;;16.70;99.90;;;;;;7359231;32;20254;-67
2022/07/07 19:27:39;;;;;;;10.52;1.55;;;16.70;99.90;;;;;;7359685;32;20175;-67
2022/07/07 19:31:41;;;;;;;8.77;1.30;;;16.50;99.90;;;;;;7334927;32;20179;-67
2022/07/07 19:35:43;;;;;;;6.57;1.27;;;16.40;99.90;;;;;;7335620;32;20153;-67
2022/07/07 19:39:52;;;;;;;7.20;1.40;;;16.40;99.90;;;;;;7347868;32;20125;-66
2022/07/07 19:43:54;;;;;;;6.95;1.30;;;16.30;99.90;;;;;;7359845;32;20116;-67
2022/07/07 19:47:57;;;;;;;9.23;1.40;;;16.30;99.90;;;;;;7359397;32;20160;-67
2022/07/07 19:52:00;;;;;;;6.97;1.40;;;16.30;99.90;;;;;;7359983;32;20128;-66
2022/07/07 19:56:03;;;;;;;9.25;1.40;;;16.30;99.90;;;;;;7342243;32;20463;-67
2022/07/07 20:00:06;;;;;;;8.68;1.70;;;16.30;99.90;;;;;;7359219;32;20532;-62
2022/07/07 20:04:07;;;;;;;11.57;1.50;;;16.20;99.90;;;;;;7358709;32;20182;-62
2022/07/07 20:08:09;;;;;;;9.35;1.70;;;16.10;99.90;;;;;;7358195;32;20580;-63
2022/07/07 20:12:11;;;;;;;7.20;1.45;;;16.10;99.90;;;;;;7359017;32;20207;-62
2022/07/07 20:16:14;;;;;;;9.00;1.33;;;16.00;99.90;;;;;;7359099;32;20112;-62
2022/07/07 20:20:19;;;;;;;10.52;1.62;;;16.00;99.90;;;;;;7358838;32;20569;-63
2022/07/07 20:24:21;;;;;;;6.10;1.60;;;16.00;99.90;;;;;;7359458;32;20155;-62
2022/07/07 20:28:23;;;;;;;9.13;2.25;;;16.00;99.90;;;;;;7356976;32;20735;-61
2022/07/07 20:32:25;;;;;;;7.37;1.60;;;15.90;99.90;;;;;;7359639;32;20091;-62
2022/07/07 20:36:26;;;;;;;10.43;1.50;;;15.90;99.90;;;;;;7359061;32;20099;-61
2022/07/07 20:40:28;;;;;;;8.75;1.60;;;15.90;99.90;;;;;;7356906;32;20126;-62
2022/07/07 20:44:30;;;;;;;9.52;1.77;;;16.00;99.90;;;;;;7358364;32;20122;-61
2022/07/07 20:48:33;;;;;;;8.32;1.67;;;15.90;99.90;;;;;;7357905;32;20142;-62
2022/07/07 20:52:36;;;;;;;10.13;1.52;;;15.80;99.90;;;;;;7358682;32;21073;-62
2022/07/07 20:56:38;;;;;;;6.20;1.55;;;15.80;99.90;;;;;;7348755;32;20133;-61
2022/07/07 21:00:40;;;;;;;9.90;2.12;;;15.80;99.90;;;;;;7332465;32;20472;-62
2022/07/07 21:04:44;;;;;;;9.13;1.50;;;15.70;99.90;;;;;;7346797;32;20199;-61
2022/07/07 21:08:45;;;;;;;13.18;1.65;;;15.80;99.90;;;;;;7358139;32;20436;-61
2022/07/07 21:12:47;;;;;;;9.05;1.48;;;15.90;99.90;;;;;;7357697;32;20231;-62
2022/07/07 21:16:49;;;;;;;9.20;1.20;;;15.80;99.90;;;;;;7357166;32;20114;-63